createdAt,value
2022-08-17T00:01:00.479Z,3.97
2022-08-17T00:03:41.131Z,4.20
2022-08-17T00:06:08.600Z,4.05
2022-08-17T00:08:51.643Z,3.87
2022-08-17T00:11:28.873Z,3.85
2022-08-17T00:14:04.914Z,3.67
2022-08-17T00:17:21.198Z,4.43
2022-08-17T00:19:59.921Z,4.68
2022-08-17T00:22:30.907Z,3.92
2022-08-17T00:25:02.687Z,4.20
2022-08-17T00:27:29.311Z,4.30
2022-08-17T00:29:55.993Z,4.00
2022-08-17T00:33:14.307Z,3.80
2022-08-17T00:35:23.633Z,4.30
2022-08-17T00:37:51.484Z,3.97
2022-08-17T00:40:19.132Z,4.40
2022-08-17T00:42:47.927Z,4.80
2022-08-17T00:45:16.802Z,4.40
2022-08-17T00:47:44.115Z,4.60
2022-08-17T00:50:33.402Z,4.50
2022-08-17T00:53:43.932Z,4.28
2022-08-17T00:56:17.194Z,4.10
2022-08-17T00:58:43.883Z,4.47
2022-08-17T01:01:11.255Z,4.60
2022-08-17T01:03:39.287Z,4.25
2022-08-17T01:06:07.899Z,4.30
2022-08-17T01:08:57.575Z,4.22
2022-08-17T01:11:24.661Z,4.40
2022-08-17T01:13:51.537Z,3.95
2022-08-17T01:16:30.801Z,4.20
2022-08-17T01:19:01.360Z,3.80
2022-08-17T01:21:48.174Z,3.85
2022-08-17T01:25:23.861Z,4.35
2022-08-17T01:28:12.457Z,3.97
2022-08-17T01:31:03.142Z,4.40
2022-08-17T01:33:30.055Z,4.60
2022-08-17T01:35:57.316Z,4.62
2022-08-17T01:38:27.089Z,4.65
2022-08-17T01:40:59.041Z,4.70
2022-08-17T01:43:51.031Z,4.85
2022-08-17T01:46:27.281Z,4.55
2022-08-17T01:48:56.346Z,4.75
2022-08-17T01:51:23.623Z,4.20
2022-08-17T01:53:57.459Z,4.22
2022-08-17T01:56:25.761Z,4.68
2022-08-17T01:58:58.387Z,4.60
2022-08-17T02:04:32.061Z,4.75
2022-08-17T02:06:58.704Z,4.72
2022-08-17T02:09:30.214Z,5.10
2022-08-17T02:11:59.233Z,4.75
2022-08-17T02:14:26.746Z,4.50
2022-08-17T02:16:54.216Z,4.12
2022-08-17T02:19:21.932Z,4.32
2022-08-17T02:21:51.174Z,5.03
2022-08-17T02:25:00.749Z,5.28
2022-08-17T02:27:20.237Z,5.18
2022-08-17T02:29:46.885Z,4.80
2022-08-17T02:32:27.532Z,4.53
2022-08-17T02:35:09.835Z,4.40
2022-08-17T02:37:36.851Z,5.00
2022-08-17T02:40:04.774Z,4.50
2022-08-17T02:42:38.361Z,4.68
2022-08-17T02:45:11.196Z,4.95
2022-08-17T02:47:38.669Z,4.65
2022-08-17T02:50:16.453Z,4.97
2022-08-17T02:53:04.821Z,4.57
2022-08-17T02:55:35.393Z,5.20
2022-08-17T02:58:03.672Z,5.05
2022-08-17T03:00:34.497Z,4.72
2022-08-17T03:03:03.193Z,4.87
2022-08-17T03:05:32.028Z,5.15
2022-08-17T03:08:13.202Z,5.18
2022-08-17T03:10:41.395Z,4.97
2022-08-17T03:13:08.032Z,4.87
2022-08-17T03:15:35.208Z,4.75
2022-08-17T03:18:03.624Z,4.55
2022-08-17T03:20:32.993Z,4.60
2022-08-17T03:23:29.579Z,4.97
2022-08-17T03:29:19.959Z,4.68
2022-08-17T03:31:49.374Z,4.30
2022-08-17T03:34:16.762Z,4.62
2022-08-17T03:36:43.772Z,4.53
2022-08-17T03:39:10.684Z,4.95
2022-08-17T03:44:19.927Z,5.05
2022-08-17T03:47:12.479Z,4.72
2022-08-17T03:49:57.703Z,4.93
2022-08-17T03:52:42.765Z,5.12
2022-08-17T03:55:35.962Z,4.95
2022-08-17T03:58:21.722Z,5.05
2022-08-17T04:01:12.932Z,5.30
2022-08-17T04:03:39.631Z,5.20
2022-08-17T04:06:06.823Z,5.18
2022-08-17T04:08:33.474Z,4.95
2022-08-17T04:11:01.281Z,5.07
2022-08-17T04:13:27.896Z,4.90
2022-08-17T04:15:54.598Z,5.30
2022-08-17T04:18:29.951Z,4.53
2022-08-17T04:20:56.578Z,4.87
2022-08-17T04:23:28.371Z,5.12
2022-08-17T04:25:55.163Z,5.22
2022-08-17T04:28:21.802Z,5.32
2022-08-17T04:30:48.447Z,4.87
2022-08-17T04:34:19.722Z,4.62
2022-08-17T04:37:02.689Z,5.10
2022-08-17T04:39:29.422Z,5.30
2022-08-17T04:42:09.246Z,5.03
2022-08-17T04:44:37.494Z,5.00
2022-08-17T04:47:05.127Z,5.22
2022-08-17T04:49:32.743Z,5.40
2022-08-17T04:52:04.350Z,5.25
2022-08-17T04:54:31.780Z,5.00
2022-08-17T04:56:58.392Z,5.35
2022-08-17T04:59:24.990Z,4.97
2022-08-17T05:01:52.569Z,5.87
2022-08-17T05:04:34.616Z,5.50
2022-08-17T05:07:02.204Z,5.87
2022-08-17T05:09:29.138Z,5.40
2022-08-17T05:11:56.304Z,5.78
2022-08-17T05:14:33.152Z,5.47
2022-08-17T05:17:01.176Z,5.97
2022-08-17T05:19:28.637Z,5.70
2022-08-17T05:21:55.285Z,6.55
2022-08-17T05:24:42.673Z,6.72
2022-08-17T05:27:08.505Z,6.55
2022-08-17T05:29:35.699Z,6.15
2022-08-17T05:32:38.951Z,6.22
2022-08-17T05:35:02.114Z,6.40
2022-08-17T05:37:28.785Z,6.22
2022-08-17T05:39:55.493Z,6.18
2022-08-17T05:42:22.661Z,6.00
2022-08-17T05:44:49.307Z,5.22
2022-08-17T05:47:16.391Z,5.87
2022-08-17T05:49:43.002Z,5.65
2022-08-17T05:52:19.862Z,5.65
2022-08-17T05:55:12.850Z,5.15
2022-08-17T05:58:03.607Z,5.60
2022-08-17T06:00:48.766Z,5.68
2022-08-17T06:03:23.166Z,5.72
2022-08-17T06:06:17.463Z,5.78
2022-08-17T06:09:03.245Z,5.78
2022-08-17T06:11:45.636Z,5.50
2022-08-17T06:14:30.060Z,6.20
2022-08-17T06:17:02.659Z,5.47
2022-08-17T06:28:14.734Z,5.70
2022-08-17T06:31:00.373Z,5.55
2022-08-17T06:33:35.191Z,5.37
2022-08-17T06:36:30.706Z,6.40
2022-08-17T06:38:57.284Z,6.07
2022-08-17T06:41:49.654Z,6.50
2022-08-17T06:44:49.876Z,6.05
2022-08-17T06:47:15.639Z,6.35
2022-08-17T06:50:14.526Z,5.65
2022-08-17T06:52:56.463Z,6.70
2022-08-17T06:55:38.043Z,6.10
2022-08-17T06:58:16.200Z,5.68
2022-08-17T07:00:47.192Z,5.60
2022-08-17T07:03:37.808Z,5.85
2022-08-17T07:06:23.757Z,5.87
2022-08-17T07:08:58.415Z,6.03
2022-08-17T07:12:05.393Z,5.45
2022-08-17T07:14:59.702Z,5.30
2022-08-17T07:17:46.731Z,5.70
2022-08-17T07:20:23.384Z,5.85
2022-08-17T07:23:08.710Z,5.62
2022-08-17T07:25:35.610Z,5.20
2022-08-17T07:28:07.101Z,5.62
2022-08-17T07:30:49.818Z,5.37
2022-08-17T07:35:50.788Z,5.47
2022-08-17T07:38:27.780Z,5.28
2022-08-17T07:40:58.027Z,5.40
2022-08-17T07:43:33.050Z,5.20
2022-08-17T07:46:23.357Z,5.25
2022-08-17T07:48:54.552Z,5.20
2022-08-17T07:51:28.278Z,5.07
2022-08-17T07:54:13.548Z,5.30
2022-08-17T07:56:55.079Z,5.90
2022-08-17T07:59:24.694Z,4.95
2022-08-17T08:01:57.490Z,5.70
2022-08-17T08:05:01.324Z,5.70
2022-08-17T08:07:35.027Z,5.25
2022-08-17T08:10:31.186Z,5.32
2022-08-17T08:13:06.966Z,5.10
2022-08-17T08:15:54.071Z,5.00
2022-08-17T08:18:53.867Z,5.50
2022-08-17T08:21:24.399Z,5.65
2022-08-17T08:24:06.202Z,5.50
2022-08-17T08:26:40.895Z,5.12
2022-08-17T08:29:32.171Z,5.30
2022-08-17T08:32:11.771Z,5.32
2022-08-17T08:35:01.428Z,5.20
2022-08-17T08:37:44.355Z,4.82
2022-08-17T08:41:04.844Z,5.17
2022-08-17T08:43:38.122Z,5.18
2022-08-17T08:46:40.996Z,5.12
2022-08-17T08:50:01.844Z,5.32
2022-08-17T08:52:57.088Z,4.93
2022-08-17T08:55:34.446Z,5.05
2022-08-17T09:02:29.621Z,4.70
2022-08-17T09:05:29.021Z,5.03
2022-08-17T09:08:04.405Z,4.60
2022-08-17T09:10:44.386Z,4.70
2022-08-17T09:13:36.243Z,5.22
2022-08-17T09:16:15.323Z,4.95
2022-08-17T09:19:03.034Z,4.07
2022-08-17T09:24:21.180Z,4.65
2022-08-17T09:26:59.661Z,4.55
2022-08-17T09:29:34.415Z,4.68
2022-08-17T09:32:04.737Z,4.72
2022-08-17T09:45:24.215Z,4.97
2022-08-17T09:47:57.464Z,3.97
2022-08-17T09:51:03.314Z,5.32
2022-08-17T09:53:31.981Z,4.53
2022-08-17T09:56:26.821Z,4.68
2022-08-17T09:59:27.452Z,4.43
2022-08-17T10:02:48.236Z,4.55
2022-08-17T10:05:25.444Z,4.20
2022-08-17T10:08:09.286Z,3.90
2022-08-17T10:10:52.248Z,4.57
2022-08-17T10:13:32.967Z,3.85
2022-08-17T10:19:55.657Z,3.35
2022-08-17T10:25:54.557Z,3.50
2022-08-17T10:28:29.797Z,3.58
2022-08-17T10:31:31.059Z,3.30
2022-08-17T10:34:21.121Z,3.65
2022-08-17T10:36:50.500Z,3.60
2022-08-17T10:39:52.123Z,3.20
2022-08-17T10:42:35.621Z,3.17
2022-08-17T10:45:15.780Z,3.37
2022-08-17T10:48:04.682Z,3.12
2022-08-17T10:50:51.764Z,3.10
2022-08-17T10:53:33.482Z,3.47
2022-08-17T10:56:12.055Z,3.10
2022-08-17T10:58:54.963Z,3.20
2022-08-17T11:01:50.107Z,2.95
2022-08-17T11:04:17.756Z,3.05
2022-08-17T11:06:53.856Z,3.28
2022-08-17T11:09:43.123Z,3.03
2022-08-17T11:12:35.676Z,3.10
2022-08-17T11:15:41.355Z,2.97
2022-08-17T11:18:37.264Z,2.90
2022-08-17T11:21:32.170Z,2.40
2022-08-17T11:24:18.972Z,2.53
2022-08-17T11:27:01.904Z,3.40
2022-08-17T11:29:53.090Z,2.85
2022-08-17T11:32:47.396Z,3.08
2022-08-17T11:35:23.447Z,3.00
2022-08-17T11:38:16.012Z,3.05
2022-08-17T11:41:11.105Z,3.22
2022-08-17T11:43:56.321Z,3.30
2022-08-17T11:47:14.958Z,3.72
2022-08-17T11:50:24.560Z,3.05
2022-08-17T11:52:54.607Z,3.40
2022-08-17T11:55:38.246Z,3.15
2022-08-17T11:58:27.096Z,3.70
2022-08-17T12:01:00.897Z,3.42
2022-08-17T12:03:37.072Z,3.17
2022-08-17T12:06:30.971Z,3.45
2022-08-17T12:09:12.156Z,3.15
2022-08-17T12:12:01.708Z,3.12
2022-08-17T12:15:05.645Z,3.20
2022-08-17T12:17:50.248Z,3.40
2022-08-17T12:20:19.750Z,3.53
2022-08-17T12:23:27.612Z,3.08
2022-08-17T12:26:21.146Z,3.37
2022-08-17T12:28:57.379Z,3.37
2022-08-17T12:31:35.554Z,3.00
2022-08-17T12:34:04.733Z,3.25
2022-08-17T12:36:33.465Z,2.75
2022-08-17T12:39:12.821Z,2.90
2022-08-17T12:41:44.225Z,2.97
2022-08-17T12:44:19.601Z,2.78
2022-08-17T12:47:19.341Z,2.72
2022-08-17T12:49:53.865Z,2.80
2022-08-17T12:52:25.335Z,2.70
2022-08-17T12:55:07.048Z,2.53
2022-08-17T12:57:47.791Z,2.83
2022-08-17T13:00:23.320Z,2.50
2022-08-17T13:02:52.317Z,2.62
2022-08-17T13:05:34.061Z,2.50
2022-08-17T13:08:01.315Z,2.45
2022-08-17T13:10:32.793Z,2.58
2022-08-17T13:13:04.556Z,2.50
2022-08-17T13:15:38.188Z,2.42
2022-08-17T13:18:39.634Z,2.37
2022-08-17T13:21:12.230Z,2.30
2022-08-17T13:23:38.926Z,2.47
2022-08-17T13:26:15.964Z,2.10
2022-08-17T13:28:51.736Z,2.08
2022-08-17T13:31:32.381Z,2.33
2022-08-17T13:34:26.932Z,2.30
2022-08-17T13:37:26.360Z,2.50
2022-08-17T13:40:07.481Z,2.30
2022-08-17T13:42:51.763Z,2.10
2022-08-17T13:45:36.156Z,1.90
2022-08-17T13:48:13.893Z,2.40
2022-08-17T13:51:15.440Z,2.47
2022-08-17T13:53:42.057Z,2.35
2022-08-17T13:56:33.459Z,2.50
2022-08-17T13:59:07.231Z,2.10
2022-08-17T14:01:39.480Z,1.92
2022-08-17T14:04:09.971Z,1.83
2022-08-17T14:06:52.526Z,1.90
2022-08-17T14:09:25.370Z,2.47
2022-08-17T14:11:54.156Z,2.28
2022-08-17T14:14:23.264Z,2.37
2022-08-17T14:16:51.573Z,2.10
2022-08-17T14:19:18.547Z,2.10
2022-08-17T14:21:47.137Z,2.20
2022-08-17T14:24:35.518Z,2.58
2022-08-17T14:27:04.308Z,2.42
2022-08-17T14:29:33.348Z,2.53
2022-08-17T14:32:06.642Z,2.50
2022-08-17T14:34:33.319Z,2.03
2022-08-17T14:37:00.004Z,2.10
2022-08-17T14:39:26.647Z,2.22
2022-08-17T14:41:53.371Z,2.67
2022-08-17T14:44:20.018Z,2.60
2022-08-17T14:46:47.997Z,2.40
2022-08-17T14:49:15.686Z,2.70
2022-08-17T14:51:44.396Z,2.45
2022-08-17T14:54:33.461Z,2.20
2022-08-17T14:57:23.392Z,2.58
2022-08-17T14:59:47.491Z,2.42
2022-08-17T15:02:19.384Z,2.45
2022-08-17T15:04:47.733Z,2.35
2022-08-17T15:07:17.906Z,2.28
2022-08-17T15:09:44.519Z,2.53
2022-08-17T15:12:18.126Z,2.65
2022-08-17T15:14:44.815Z,2.45
2022-08-17T15:17:11.562Z,2.65
2022-08-17T15:19:38.176Z,2.40
2022-08-17T15:22:04.923Z,2.55
2022-08-17T15:24:31.589Z,2.03
2022-08-17T15:26:58.239Z,2.40
2022-08-17T15:29:24.847Z,2.67
2022-08-17T15:31:51.940Z,2.30
2022-08-17T15:34:18.588Z,2.50
2022-08-17T15:36:55.407Z,2.30
2022-08-17T15:39:22.169Z,2.42
2022-08-17T15:41:58.422Z,2.20
2022-08-17T15:44:32.428Z,2.50
2022-08-17T15:47:02.121Z,2.03
2022-08-17T15:49:28.959Z,2.33
2022-08-17T15:51:55.574Z,2.42
2022-08-17T15:54:23.401Z,2.60
2022-08-17T15:56:50.875Z,2.17
2022-08-17T15:59:17.844Z,2.33
2022-08-17T16:03:01.500Z,2.40
2022-08-17T16:04:30.071Z,2.30
2022-08-17T16:06:58.741Z,2.45
2022-08-17T16:09:25.361Z,2.40
2022-08-17T16:11:53.895Z,2.37
2022-08-17T16:14:22.659Z,2.45
2022-08-17T16:16:50.874Z,2.22
2022-08-17T16:19:17.574Z,2.45
2022-08-17T16:21:44.257Z,2.17
2022-08-17T16:24:13.275Z,2.22
2022-08-17T16:26:42.063Z,2.65
2022-08-17T16:29:08.857Z,2.17
2022-08-17T16:31:37.591Z,2.25
2022-08-17T16:34:17.069Z,2.50
2022-08-17T16:36:54.886Z,2.47
2022-08-17T16:39:33.090Z,2.35
2022-08-17T16:42:01.373Z,2.45
2022-08-17T16:44:30.952Z,2.55
2022-08-17T16:47:00.110Z,2.10
2022-08-17T16:49:36.874Z,2.60
2022-08-17T16:52:10.072Z,2.37
2022-08-17T16:54:40.157Z,2.10
2022-08-17T16:57:07.006Z,2.35
2022-08-17T16:59:40.896Z,2.30
2022-08-17T17:02:10.979Z,2.55
2022-08-17T17:04:52.050Z,2.17
2022-08-17T17:07:37.480Z,2.30
2022-08-17T17:10:15.919Z,2.05
2022-08-17T17:13:02.715Z,2.08
2022-08-17T17:15:51.747Z,2.28
2022-08-17T17:18:26.484Z,2.10
2022-08-17T17:21:00.576Z,2.20
2022-08-17T17:23:37.803Z,1.95
2022-08-17T17:26:33.782Z,2.00
2022-08-17T17:29:22.121Z,1.92
2022-08-17T17:32:04.545Z,2.90
2022-08-17T17:34:36.241Z,2.17
2022-08-17T17:37:12.562Z,2.90
2022-08-17T17:40:01.858Z,2.67
2022-08-17T17:42:31.771Z,2.65
2022-08-17T17:45:09.475Z,2.30
2022-08-17T17:47:36.838Z,2.50
2022-08-17T17:50:06.431Z,2.75
2022-08-17T17:52:37.812Z,2.55
2022-08-17T17:55:07.896Z,2.50
2022-08-17T17:58:01.974Z,3.05
2022-08-17T18:00:37.856Z,2.50
2022-08-17T18:03:39.732Z,2.60
2022-08-17T18:06:16.309Z,2.70
2022-08-17T18:08:52.851Z,2.40
2022-08-17T18:11:25.944Z,2.67
2022-08-17T18:15:10.366Z,2.42
2022-08-17T18:17:38.683Z,2.83
2022-08-17T18:20:07.021Z,2.58
2022-08-17T18:22:34.163Z,2.75
2022-08-17T18:25:00.951Z,2.90
2022-08-17T18:27:51.119Z,2.85
2022-08-17T18:30:17.838Z,3.55
2022-08-17T18:32:46.668Z,3.10
2022-08-17T18:35:16.159Z,2.65
2022-08-17T18:37:52.071Z,3.00
2022-08-17T18:40:21.585Z,2.83
2022-08-17T18:43:00.378Z,3.05
2022-08-17T18:45:35.774Z,3.10
2022-08-17T18:48:03.175Z,3.75
2022-08-17T18:50:41.213Z,3.08
2022-08-17T18:53:35.518Z,2.83
2022-08-17T18:56:31.425Z,2.72
2022-08-17T18:59:04.430Z,2.78
2022-08-17T19:02:11.592Z,2.50
2022-08-17T19:04:55.722Z,2.90
2022-08-17T19:07:22.502Z,2.87
2022-08-17T19:09:52.907Z,2.50
2022-08-17T19:12:38.355Z,2.65
2022-08-17T19:15:07.987Z,2.80
2022-08-17T19:18:00.720Z,2.83
2022-08-17T19:23:14.233Z,3.30
2022-08-17T19:25:49.238Z,2.75
2022-08-17T19:28:24.895Z,3.03
2022-08-17T19:36:38.855Z,2.83
2022-08-17T19:39:51.811Z,2.87
2022-08-17T19:42:52.531Z,3.03
2022-08-17T19:45:49.600Z,2.60
2022-08-17T19:48:37.653Z,2.85
2022-08-17T19:51:11.565Z,3.08
2022-08-17T19:54:05.064Z,2.75
2022-08-17T19:56:50.658Z,2.42
2022-08-17T19:59:48.979Z,2.87
2022-08-17T20:02:41.928Z,2.75
2022-08-17T20:08:06.211Z,2.60
2022-08-17T20:10:55.421Z,2.90
2022-08-17T20:13:35.183Z,3.03
2022-08-17T20:16:03.469Z,2.80
2022-08-17T20:18:36.760Z,2.78
2022-08-17T20:21:20.395Z,2.80
2022-08-17T20:24:13.082Z,2.83
2022-08-17T20:26:59.289Z,2.85
2022-08-17T20:29:55.338Z,3.00
2022-08-17T20:32:29.696Z,3.10
2022-08-17T20:35:04.292Z,2.78
2022-08-17T20:37:34.386Z,2.90
2022-08-17T20:40:01.084Z,2.72
2022-08-17T20:42:31.587Z,2.70
2022-08-17T20:45:05.655Z,3.00
2022-08-17T20:47:55.171Z,2.78
2022-08-17T20:50:35.522Z,3.00
2022-08-17T20:53:05.198Z,2.85
2022-08-17T20:55:51.563Z,2.90
2022-08-17T20:58:30.845Z,2.78
2022-08-17T21:00:57.651Z,2.80
2022-08-17T21:03:24.392Z,2.75
2022-08-17T21:06:17.626Z,3.08
2022-08-17T21:09:07.059Z,2.92
2022-08-17T21:11:57.010Z,2.87
2022-08-17T21:14:52.210Z,3.20
2022-08-17T21:17:29.583Z,3.03
2022-08-17T21:20:17.150Z,2.85
2022-08-17T21:22:49.467Z,3.05
2022-08-17T21:25:19.146Z,2.97
2022-08-17T21:27:54.580Z,3.10
2022-08-17T21:30:41.471Z,3.17
2022-08-17T21:33:16.866Z,3.15
2022-08-17T21:35:52.366Z,2.92
2022-08-17T21:38:23.618Z,3.40
2022-08-17T21:40:53.174Z,3.33
2022-08-17T21:43:29.333Z,2.95
2022-08-17T21:46:10.457Z,3.05
2022-08-17T21:48:49.329Z,2.92
2022-08-17T21:51:26.145Z,3.40
2022-08-17T21:54:05.753Z,3.33
2022-08-17T21:56:38.901Z,3.30
2022-08-17T21:59:44.290Z,2.80
2022-08-17T22:02:24.793Z,3.45
2022-08-17T22:05:13.068Z,2.97
2022-08-17T22:07:45.174Z,3.25
2022-08-17T22:10:30.471Z,3.12
2022-08-17T22:13:21.383Z,3.08
2022-08-17T22:16:15.364Z,3.40
2022-08-17T22:18:57.707Z,3.10
2022-08-17T22:21:25.213Z,3.40
2022-08-17T22:24:04.567Z,3.42
2022-08-17T22:27:00.110Z,3.87
2022-08-17T22:29:47.916Z,3.78
2022-08-17T22:32:38.002Z,3.50
2022-08-17T22:35:26.752Z,2.90
2022-08-17T22:37:53.356Z,3.17
2022-08-17T22:40:33.698Z,3.00
2022-08-17T22:43:03.388Z,3.05
2022-08-17T22:45:30.432Z,3.00
2022-08-17T22:48:38.702Z,2.90
2022-08-17T22:51:28.639Z,2.97
2022-08-17T22:54:18.841Z,3.58
2022-08-17T22:57:22.918Z,4.40
2022-08-17T22:59:51.028Z,4.85
2022-08-17T23:02:33.552Z,5.93
2022-08-17T23:05:10.118Z,6.60
2022-08-17T23:07:52.449Z,8.82
2022-08-17T23:10:19.461Z,7.05
2022-08-17T23:12:46.555Z,5.18
2022-08-17T23:15:17.003Z,3.95
2022-08-17T23:17:45.316Z,3.60
2022-08-17T23:20:15.118Z,3.85
2022-08-17T23:23:28.793Z,4.20
2022-08-17T23:26:18.647Z,3.92
2022-08-17T23:28:45.813Z,3.08
2022-08-17T23:31:16.473Z,3.70
2022-08-17T23:33:43.440Z,3.37
2022-08-17T23:36:15.944Z,3.30
2022-08-17T23:38:46.826Z,3.37
2022-08-17T23:41:18.520Z,3.30
2022-08-17T23:43:47.766Z,4.37
2022-08-17T23:46:14.616Z,3.22
2022-08-17T23:48:41.436Z,3.62
2022-08-17T23:51:12.530Z,4.43
2022-08-17T23:53:44.097Z,3.72
2022-08-17T23:56:23.228Z,4.10
2022-08-17T23:58:49.814Z,3.83
